This is the latest recevied weather packets stored in our database for station/object SR2GKG-13. If no packets are shown the sender has not sent any weather packets the latest 10 day(s).
| Time | Temp. | Humidity | Pressure | Rain* | Wind** | Luminosity | Snow |
|---|---|---|---|---|---|---|---|
| 1777629229 | 20° C | 35% | 1015.1 hPa | - | - | - | - |
| 1777628329 | 20.56° C | 34% | 1015 hPa | - | - | - | - |
| 1777627429 | 20° C | 35% | 1015.3 hPa | - | - | - | - |
| 1777626529 | 19.44° C | 36% | 1015.4 hPa | - | - | - | - |
| 1777625628 | 18.89° C | 36% | 1015.4 hPa | - | - | - | - |
| 1777624728 | 19.44° C | 35% | 1015.5 hPa | - | - | - | - |
| 1777623828 | 18.89° C | 35% | 1015.4 hPa | - | - | - | - |
| 1777622928 | 21.67° C | 30% | 1015.4 hPa | - | - | - | - |
| 1777622028 | 19.44° C | 35% | 1015.4 hPa | - | - | - | - |
| 1777621128 | 21.11° C | 31% | 1015.4 hPa | - | - | - | - |
| 1777620228 | 18.89° C | 34% | 1015.3 hPa | - | - | - | - |
| 1777619328 | 16.67° C | 38% | 1015.5 hPa | - | - | - | - |
| 1777618428 | 20° C | 31% | 1015.5 hPa | - | - | - | - |
| 1777617528 | 20° C | 32% | 1015.4 hPa | - | - | - | - |
| 1777616628 | 20.56° C | 31% | 1015.3 hPa | - | - | - | - |
| 1777615727 | 18.33° C | 35% | 1015.2 hPa | - | - | - | - |
| 1777614827 | 16.67° C | 38% | 1015.3 hPa | - | - | - | - |
| 1777613927 | 13.33° C | 47% | 1015.2 hPa | - | - | - | - |
| 1777613027 | 10.56° C | 54% | 1015.2 hPa | - | - | - | - |
| 1777612127 | 9.44° C | 58% | 1015.2 hPa | - | - | - | - |
| 1777611227 | 7.22° C | 64% | 1015.3 hPa | - | - | - | - |
| 1777610327 | 6.11° C | 67% | 1015.4 hPa | - | - | - | - |
| 1777609427 | 5° C | 70% | 1015.4 hPa | - | - | - | - |
| 1777608527 | 3.89° C | 73% | 1015.3 hPa | - | - | - | - |
| 1777607627 | 3.33° C | 75% | 1015.3 hPa | - | - | - | - |
* Rain since midnight (hover to see other rain measurements)
** Current wind speed in m/s (hover to see current wind gust speed)